KR-0336 weather

Public forecast

Using degrees Celsius for public forecast. Weather courtesy of forecast.io.

Closest aviation weather report (METAR) to Pale de Cz Hotel Heliports

Closest report is Gimhae International Airport, 11.3 nm (20.9 km) W. Retrieved 2020/08/15 12:00 UTC (43 minutes ago):

RKPK 151200Z 22007KT CAVOK 29/23 Q1010

Closest aviation forecast (TAF) to Pale de Cz Hotel Heliports

Closest forecast is Gimhae International Airport, 11.3 nm (20.9 km) W. Retrieved 2020/08/15 12:00 UTC (43 minutes ago):

TAF RKPK 151100Z 1512/1618 18006KT 9999 FEW030 SCT200 TN26/1520Z TX34/1605Z BECMG 1517/1518 33006KT BECMG 1601/1602 18012KT BECMG 1609/1610 18006KT